sensor_id;sensor_type;location;lat;lon;timestamp;pressure;altitude;pressure_sealevel;temperature;humidity
32642;BME280;19323;56.072;9.698;2022-09-30T00:01:04;99896.97;;;26.33;39.02
32642;BME280;19323;56.072;9.698;2022-09-30T00:03:31;99898.81;;;26.32;39.53
32642;BME280;19323;56.072;9.698;2022-09-30T00:05:59;99900.50;;;26.33;38.96
32642;BME280;19323;56.072;9.698;2022-09-30T00:08:33;99889.28;;;26.29;39.09
32642;BME280;19323;56.072;9.698;2022-09-30T00:11:04;99900.50;;;26.33;39.18
32642;BME280;19323;56.072;9.698;2022-09-30T00:13:33;99898.00;;;26.31;39.24
32642;BME280;19323;56.072;9.698;2022-09-30T00:16:00;99900.84;;;26.30;39.28
32642;BME280;19323;56.072;9.698;2022-09-30T00:18:27;99900.69;;;26.31;39.07
32642;BME280;19323;56.072;9.698;2022-09-30T00:20:54;99896.34;;;26.30;39.01
32642;BME280;19323;56.072;9.698;2022-09-30T00:23:21;99900.50;;;26.33;38.78
32642;BME280;19323;56.072;9.698;2022-09-30T00:25:48;99903.38;;;26.31;39.07
32642;BME280;19323;56.072;9.698;2022-09-30T00:28:15;99898.00;;;26.31;39.31
32642;BME280;19323;56.072;9.698;2022-09-30T00:30:42;99903.53;;;26.30;38.95
32642;BME280;19323;56.072;9.698;2022-09-30T00:33:08;99903.38;;;26.31;39.16
32642;BME280;19323;56.072;9.698;2022-09-30T00:35:36;99905.00;;;26.33;39.32
32642;BME280;19323;56.072;9.698;2022-09-30T00:38:03;99900.03;;;26.29;39.36
32642;BME280;19323;56.072;9.698;2022-09-30T00:40:29;99908.72;;;26.31;38.60
32642;BME280;19323;56.072;9.698;2022-09-30T00:42:56;99903.75;;;26.28;38.87
32642;BME280;19323;56.072;9.698;2022-09-30T00:45:26;99914.75;;;26.34;38.69
32642;BME280;19323;56.072;9.698;2022-09-30T00:48:07;99916.31;;;26.43;38.70
32642;BME280;19323;56.072;9.698;2022-09-30T00:53:14;99908.19;;;26.36;38.56
32642;BME280;19323;56.072;9.698;2022-09-30T00:58:22;99917.91;;;26.37;38.73
32642;BME280;19323;56.072;9.698;2022-09-30T01:00:50;99911.59;;;26.30;38.92
32642;BME280;19323;56.072;9.698;2022-09-30T01:03:18;99913.94;;;26.33;38.64
32642;BME280;19323;56.072;9.698;2022-09-30T01:05:49;99914.09;;;26.31;39.09
32642;BME280;19323;56.072;9.698;2022-09-30T01:08:17;99909.56;;;26.32;38.79
32642;BME280;19323;56.072;9.698;2022-09-30T01:10:45;99909.75;;;26.30;39.14
32642;BME280;19323;56.072;9.698;2022-09-30T01:13:13;99906.22;;;26.30;38.84
32642;BME280;19323;56.072;9.698;2022-09-30T01:16:07;99910.94;;;26.43;38.86
32642;BME280;19323;56.072;9.698;2022-09-30T01:18:55;99913.53;;;26.36;38.65
32642;BME280;19323;56.072;9.698;2022-09-30T01:35:44;99915.88;;;26.39;38.52
32642;BME280;19323;56.072;9.698;2022-09-30T01:38:25;99914.38;;;26.37;38.56
32642;BME280;19323;56.072;9.698;2022-09-30T01:41:04;99907.19;;;26.37;38.88
32642;BME280;19323;56.072;9.698;2022-09-30T01:46:33;99909.88;;;26.37;38.93
32642;BME280;19323;56.072;9.698;2022-09-30T01:51:37;99905.50;;;26.36;38.47
32642;BME280;19323;56.072;9.698;2022-09-30T01:54:16;99902.63;;;26.38;38.55
32642;BME280;19323;56.072;9.698;2022-09-30T01:56:53;99907.19;;;26.37;38.90
32642;BME280;19323;56.072;9.698;2022-09-30T01:59:31;99903.63;;;26.37;38.78
32642;BME280;19323;56.072;9.698;2022-09-30T02:02:05;99902.97;;;26.35;38.56
32642;BME280;19323;56.072;9.698;2022-09-30T02:04:39;99906.53;;;26.35;38.56
32642;BME280;19323;56.072;9.698;2022-09-30T02:07:13;99894.94;;;26.35;38.50
32642;BME280;19323;56.072;9.698;2022-09-30T02:09:51;99906.31;;;26.37;38.44
32642;BME280;19323;56.072;9.698;2022-09-30T02:12:22;99910.75;;;26.29;38.85
32642;BME280;19323;56.072;9.698;2022-09-30T02:15:14;99899.78;;;26.39;38.37
32642;BME280;19323;56.072;9.698;2022-09-30T02:17:47;99899.47;;;26.34;38.73
32642;BME280;19323;56.072;9.698;2022-09-30T02:20:25;99902.16;;;26.34;38.75
32642;BME280;19323;56.072;9.698;2022-09-30T02:25:31;99896.78;;;26.34;38.55
32642;BME280;19323;56.072;9.698;2022-09-30T02:28:02;99906.22;;;26.30;38.56
32642;BME280;19323;56.072;9.698;2022-09-30T02:30:35;99897.16;;;26.31;38.90
32642;BME280;19323;56.072;9.698;2022-09-30T02:33:06;99900.84;;;26.30;38.67
32642;BME280;19323;56.072;9.698;2022-09-30T02:35:36;99907.44;;;26.27;38.62
32642;BME280;19323;56.072;9.698;2022-09-30T02:38:09;99907.53;;;26.34;38.76
32642;BME280;19323;56.072;9.698;2022-09-30T02:40:43;99908.34;;;26.35;38.77
32642;BME280;19323;56.072;9.698;2022-09-30T02:43:14;99902.25;;;26.26;38.80
32642;BME280;19323;56.072;9.698;2022-09-30T02:51:03;99908.56;;;26.33;38.72
32642;BME280;19323;56.072;9.698;2022-09-30T02:56:27;99920.59;;;26.37;38.58
32642;BME280;19323;56.072;9.698;2022-09-30T02:58:58;99916.69;;;26.25;38.48
32642;BME280;19323;56.072;9.698;2022-09-30T03:01:24;99921.88;;;26.26;38.61
32642;BME280;19323;56.072;9.698;2022-09-30T03:04:05;99933.00;;;26.38;38.26
32642;BME280;19323;56.072;9.698;2022-09-30T03:06:34;99935.09;;;26.28;38.79
32642;BME280;19323;56.072;9.698;2022-09-30T03:09:01;99931.16;;;26.24;38.66
32642;BME280;19323;56.072;9.698;2022-09-30T03:11:29;99939.19;;;26.24;38.60
32642;BME280;19323;56.072;9.698;2022-09-30T03:17:18;99951.97;;;26.37;38.38
32642;BME280;19323;56.072;9.698;2022-09-30T03:30:23;99957.59;;;26.27;38.57
32642;BME280;19323;56.072;9.698;2022-09-30T03:33:05;99954.28;;;26.25;38.36
32642;BME280;19323;56.072;9.698;2022-09-30T03:41:05;99950.84;;;26.31;38.51
32642;BME280;19323;56.072;9.698;2022-09-30T03:46:20;99952.88;;;26.29;38.53
32642;BME280;19323;56.072;9.698;2022-09-30T03:48:52;99959.91;;;26.30;38.29
32642;BME280;19323;56.072;9.698;2022-09-30T03:51:21;99950.94;;;26.23;38.30
32642;BME280;19323;56.072;9.698;2022-09-30T03:53:50;99949.06;;;26.23;38.22
32642;BME280;19323;56.072;9.698;2022-09-30T03:56:26;99959.56;;;26.33;38.41
32642;BME280;19323;56.072;9.698;2022-09-30T03:58:55;99951.97;;;26.22;38.56
32642;BME280;19323;56.072;9.698;2022-09-30T04:01:22;99952.78;;;26.22;38.41
32642;BME280;19323;56.072;9.698;2022-09-30T04:03:50;99949.94;;;26.24;38.34
32642;BME280;19323;56.072;9.698;2022-09-30T04:06:23;99948.53;;;26.28;38.39
32642;BME280;19323;56.072;9.698;2022-09-30T04:08:50;99930.91;;;26.10;38.34
32642;BME280;19323;56.072;9.698;2022-09-30T04:11:19;99948.25;;;26.23;38.47
32642;BME280;19323;56.072;9.698;2022-09-30T04:13:46;99944.91;;;26.21;38.63
32642;BME280;19323;56.072;9.698;2022-09-30T04:16:12;99944.09;;;26.20;38.35
32642;BME280;19323;56.072;9.698;2022-09-30T04:18:39;99909.88;;;25.99;38.22
32642;BME280;19323;56.072;9.698;2022-09-30T04:21:08;99952.88;;;26.29;38.28
32642;BME280;19323;56.072;9.698;2022-09-30T04:23:36;99951.75;;;26.23;38.49
32642;BME280;19323;56.072;9.698;2022-09-30T04:26:05;99958.81;;;26.24;38.53
32642;BME280;19323;56.072;9.698;2022-09-30T04:28:32;99959.00;;;26.23;38.47
32642;BME280;19323;56.072;9.698;2022-09-30T04:31:03;99957.13;;;26.23;38.38
32642;BME280;19323;56.072;9.698;2022-09-30T04:33:30;99958.34;;;26.21;38.63
32642;BME280;19323;56.072;9.698;2022-09-30T04:35:58;99962.50;;;26.23;38.84
32642;BME280;19323;56.072;9.698;2022-09-30T04:38:25;99962.69;;;26.22;38.87
32642;BME280;19323;56.072;9.698;2022-09-30T04:40:53;99945.84;;;26.13;38.61
32642;BME280;19323;56.072;9.698;2022-09-30T04:43:20;99962.69;;;26.22;38.99
32642;BME280;19323;56.072;9.698;2022-09-30T04:45:50;99973.22;;;26.23;39.13
32642;BME280;19323;56.072;9.698;2022-09-30T04:48:20;99973.44;;;26.22;38.77
32642;BME280;19323;56.072;9.698;2022-09-30T04:50:48;99971.75;;;26.21;38.67
32642;BME280;19323;56.072;9.698;2022-09-30T04:53:15;99973.44;;;26.22;38.51
32642;BME280;19323;56.072;9.698;2022-09-30T04:55:42;99974.44;;;26.21;38.48
32642;BME280;19323;56.072;9.698;2022-09-30T04:58:10;99973.59;;;26.20;38.81
32642;BME280;19323;56.072;9.698;2022-09-30T05:00:37;99964.06;;;26.18;38.66
32642;BME280;19323;56.072;9.698;2022-09-30T05:03:04;99964.06;;;26.18;38.65
32642;BME280;19323;56.072;9.698;2022-09-30T05:05:31;99966.56;;;26.19;39.06
32642;BME280;19323;56.072;9.698;2022-09-30T05:08:02;99977.22;;;26.27;38.46
32642;BME280;19323;56.072;9.698;2022-09-30T05:10:29;99964.06;;;26.18;38.79
32642;BME280;19323;56.072;9.698;2022-09-30T05:12:56;99968.25;;;26.20;38.50
32642;BME280;19323;56.072;9.698;2022-09-30T05:15:26;99971.75;;;26.21;38.46
32642;BME280;19323;56.072;9.698;2022-09-30T05:17:52;99967.41;;;26.20;38.81
32642;BME280;19323;56.072;9.698;2022-09-30T05:20:19;99965.38;;;26.22;38.96
32642;BME280;19323;56.072;9.698;2022-09-30T05:22:47;99961.84;;;26.21;38.67
32642;BME280;19323;56.072;9.698;2022-09-30T05:25:18;99961.66;;;26.23;38.98
32642;BME280;19323;56.072;9.698;2022-09-30T05:27:47;99962.81;;;26.28;38.48
32642;BME280;19323;56.072;9.698;2022-09-30T05:30:14;99960.00;;;26.22;38.58
32642;BME280;19323;56.072;9.698;2022-09-30T05:32:40;99956.13;;;26.24;38.55
32642;BME280;19323;56.072;9.698;2022-09-30T05:35:07;99954.44;;;26.23;38.58
32642;BME280;19323;56.072;9.698;2022-09-30T05:37:34;99946.94;;;26.19;38.56
32642;BME280;19323;56.072;9.698;2022-09-30T05:40:01;99955.31;;;26.24;38.99
32642;BME280;19323;56.072;9.698;2022-09-30T05:42:27;99954.44;;;26.23;38.75
32642;BME280;19323;56.072;9.698;2022-09-30T05:44:56;99950.94;;;26.23;39.17
32642;BME280;19323;56.072;9.698;2022-09-30T05:47:22;99937.50;;;26.23;38.82
32642;BME280;19323;56.072;9.698;2022-09-30T05:49:49;99941.03;;;26.23;38.92
32642;BME280;19323;56.072;9.698;2022-09-30T05:52:21;99932.16;;;26.23;38.70
32642;BME280;19323;56.072;9.698;2022-09-30T05:54:47;99926.59;;;26.24;38.89
32642;BME280;19323;56.072;9.698;2022-09-30T05:57:15;99930.13;;;26.25;39.03
32642;BME280;19323;56.072;9.698;2022-09-30T05:59:42;99923.09;;;26.24;38.91
32642;BME280;19323;56.072;9.698;2022-09-30T06:02:09;99922.06;;;26.25;38.71
32642;BME280;19323;56.072;9.698;2022-09-30T06:04:36;99929.09;;;26.26;38.56
32642;BME280;19323;56.072;9.698;2022-09-30T06:07:02;99932.78;;;26.25;38.86
32642;BME280;19323;56.072;9.698;2022-09-30T06:09:35;99933.63;;;26.25;38.96
32642;BME280;19323;56.072;9.698;2022-09-30T06:12:02;99932.63;;;26.26;38.98
32642;BME280;19323;56.072;9.698;2022-09-30T06:14:28;99922.44;;;26.22;38.90
32642;BME280;19323;56.072;9.698;2022-09-30T06:16:54;99926.78;;;26.23;38.80
32642;BME280;19323;56.072;9.698;2022-09-30T06:19:21;99941.88;;;26.24;38.66
32642;BME280;19323;56.072;9.698;2022-09-30T06:21:48;99934.00;;;26.22;39.04
32642;BME280;19323;56.072;9.698;2022-09-30T06:24:14;99932.53;;;26.20;38.67
32642;BME280;19323;56.072;9.698;2022-09-30T06:26:40;99942.72;;;26.24;38.86
32642;BME280;19323;56.072;9.698;2022-09-30T06:29:08;99942.50;;;26.26;38.90
32642;BME280;19323;56.072;9.698;2022-09-30T06:31:34;99942.50;;;26.26;38.98
32642;BME280;19323;56.072;9.698;2022-09-30T06:34:01;99952.41;;;26.25;39.01
32642;BME280;19323;56.072;9.698;2022-09-30T06:36:27;99953.25;;;26.26;39.02
32642;BME280;19323;56.072;9.698;2022-09-30T06:38:54;99943.72;;;26.23;38.81
32642;BME280;19323;56.072;9.698;2022-09-30T06:41:20;99949.06;;;26.23;38.48
32642;BME280;19323;56.072;9.698;2022-09-30T06:43:50;99953.25;;;26.26;38.90
32642;BME280;19323;56.072;9.698;2022-09-30T06:46:26;99958.59;;;26.26;38.61
32642;BME280;19323;56.072;9.698;2022-09-30T06:48:57;99965.66;;;26.27;38.63
32642;BME280;19323;56.072;9.698;2022-09-30T06:51:38;99955.91;;;26.26;38.38
32642;BME280;19323;56.072;9.698;2022-09-30T06:54:04;99955.31;;;26.24;38.53
32642;BME280;19323;56.072;9.698;2022-09-30T06:56:31;99953.25;;;26.26;38.49
32642;BME280;19323;56.072;9.698;2022-09-30T06:58:57;99959.47;;;26.26;38.53
32642;BME280;19323;56.072;9.698;2022-09-30T07:01:24;99965.66;;;26.27;38.41
32642;BME280;19323;56.072;9.698;2022-09-30T07:03:50;99973.72;;;26.27;38.63
32642;BME280;19323;56.072;9.698;2022-09-30T07:06:28;99963.97;;;26.26;38.31
32642;BME280;19323;56.072;9.698;2022-09-30T07:08:55;99967.53;;;26.26;38.62
32642;BME280;19323;56.072;9.698;2022-09-30T07:11:22;99969.34;;;26.26;38.63
32642;BME280;19323;56.072;9.698;2022-09-30T07:13:50;99967.53;;;26.26;38.74
32642;BME280;19323;56.072;9.698;2022-09-30T07:16:17;99958.59;;;26.26;38.61
32642;BME280;19323;56.072;9.698;2022-09-30T07:18:45;99962.81;;;26.28;38.57
32642;BME280;19323;56.072;9.698;2022-09-30T07:21:13;99960.28;;;26.27;38.32
32642;BME280;19323;56.072;9.698;2022-09-30T07:23:45;99961.22;;;26.34;38.59
32642;BME280;19323;56.072;9.698;2022-09-30T07:26:16;99955.75;;;26.27;38.61
32642;BME280;19323;56.072;9.698;2022-09-30T07:28:43;99954.91;;;26.27;38.79
32642;BME280;19323;56.072;9.698;2022-09-30T07:31:13;99958.91;;;26.31;38.37
32642;BME280;19323;56.072;9.698;2022-09-30T07:34:01;99948.72;;;26.26;38.33
32642;BME280;19323;56.072;9.698;2022-09-30T07:36:28;99950.56;;;26.26;38.05
32642;BME280;19323;56.072;9.698;2022-09-30T07:39:00;99960.94;;;26.29;38.12
32642;BME280;19323;56.072;9.698;2022-09-30T07:41:31;99953.88;;;26.28;38.52
32642;BME280;19323;56.072;9.698;2022-09-30T07:43:58;99956.56;;;26.28;38.13
32642;BME280;19323;56.072;9.698;2022-09-30T07:46:30;99950.66;;;26.33;37.98
32642;BME280;19323;56.072;9.698;2022-09-30T07:48:58;99958.25;;;26.29;38.07
32642;BME280;19323;56.072;9.698;2022-09-30T07:51:36;99961.03;;;26.36;38.31
32642;BME280;19323;56.072;9.698;2022-09-30T07:54:14;99935.19;;;26.20;38.57
32642;BME280;19323;56.072;9.698;2022-09-30T07:56:43;99942.97;;;26.29;38.52
32642;BME280;19323;56.072;9.698;2022-09-30T07:59:31;99954.38;;;26.31;38.16
32642;BME280;19323;56.072;9.698;2022-09-30T08:01:59;99941.31;;;26.28;38.46
32642;BME280;19323;56.072;9.698;2022-09-30T08:04:26;99950.22;;;26.29;38.18
32642;BME280;19323;56.072;9.698;2022-09-30T08:06:56;99950.66;;;26.33;38.30
32642;BME280;19323;56.072;9.698;2022-09-30T08:09:24;99957.88;;;26.32;38.04
32642;BME280;19323;56.072;9.698;2022-09-30T08:11:52;99954.53;;;26.30;38.02
32642;BME280;19323;56.072;9.698;2022-09-30T08:14:21;99958.72;;;26.33;38.27
32642;BME280;19323;56.072;9.698;2022-09-30T08:16:48;99956.41;;;26.29;38.15
32642;BME280;19323;56.072;9.698;2022-09-30T08:19:17;99967.63;;;26.33;38.09
32642;BME280;19323;56.072;9.698;2022-09-30T08:21:44;99962.59;;;26.30;37.81
32642;BME280;19323;56.072;9.698;2022-09-30T08:24:11;99954.53;;;26.30;37.96
32642;BME280;19323;56.072;9.698;2022-09-30T08:26:38;99958.91;;;26.31;38.42
32642;BME280;19323;56.072;9.698;2022-09-30T08:29:05;99956.22;;;26.31;37.77
32642;BME280;19323;56.072;9.698;2022-09-30T08:31:32;99958.91;;;26.31;38.27
32642;BME280;19323;56.072;9.698;2022-09-30T08:33:59;99956.22;;;26.31;38.19
32642;BME280;19323;56.072;9.698;2022-09-30T08:36:26;99955.41;;;26.30;38.31
32642;BME280;19323;56.072;9.698;2022-09-30T08:38:53;99957.88;;;26.32;37.83
32642;BME280;19323;56.072;9.698;2022-09-30T08:44:24;99957.44;;;26.43;37.57
32642;BME280;19323;56.072;9.698;2022-09-30T08:49:48;99964.38;;;26.38;37.74
32642;BME280;19323;56.072;9.698;2022-09-30T08:52:26;99961.16;;;26.42;37.52
32642;BME280;19323;56.072;9.698;2022-09-30T08:55:03;99965.75;;;26.34;38.12
32642;BME280;19323;56.072;9.698;2022-09-30T08:57:38;99957.81;;;26.40;38.01
32642;BME280;19323;56.072;9.698;2022-09-30T09:00:15;99961.53;;;26.39;37.73
32642;BME280;19323;56.072;9.698;2022-09-30T09:02:49;99958.63;;;26.41;37.65
32642;BME280;19323;56.072;9.698;2022-09-30T09:07:54;99959.19;;;26.36;38.17
32642;BME280;19323;56.072;9.698;2022-09-30T09:11:06;99950.69;;;26.47;37.54
32642;BME280;19323;56.072;9.698;2022-09-30T09:14:43;99951.41;;;26.41;37.65
32642;BME280;19323;56.072;9.698;2022-09-30T09:17:08;99957.72;;;26.48;37.96
32642;BME280;19323;56.072;9.698;2022-09-30T09:19:46;99955.59;;;26.44;38.12
32642;BME280;19323;56.072;9.698;2022-09-30T09:22:15;99952.16;;;26.35;38.08
32642;BME280;19323;56.072;9.698;2022-09-30T09:24:49;99948.53;;;26.43;37.71
32642;BME280;19323;56.072;9.698;2022-09-30T09:27:40;99951.78;;;26.38;37.81
32642;BME280;19323;56.072;9.698;2022-09-30T09:30:12;99950.59;;;26.41;38.04
32642;BME280;19323;56.072;9.698;2022-09-30T09:32:39;99950.78;;;26.39;37.53
32642;BME280;19323;56.072;9.698;2022-09-30T09:46:42;99937.72;;;26.36;38.10
32642;BME280;19323;56.072;9.698;2022-09-30T09:51:45;99941.97;;;26.45;38.12
32642;BME280;19323;56.072;9.698;2022-09-30T09:54:16;99944.66;;;26.45;37.65
32642;BME280;19323;56.072;9.698;2022-09-30T09:56:44;99951.41;;;26.41;37.68
32642;BME280;19323;56.072;9.698;2022-09-30T09:59:17;99944.75;;;26.52;37.73
32642;BME280;19323;56.072;9.698;2022-09-30T10:01:49;99951.06;;;26.44;37.87
32642;BME280;19323;56.072;9.698;2022-09-30T10:04:25;99946.16;;;26.48;37.43
32642;BME280;19323;56.072;9.698;2022-09-30T10:07:00;99946.50;;;26.45;38.05
32642;BME280;19323;56.072;9.698;2022-09-30T10:09:33;99947.44;;;26.52;37.74
32642;BME280;19323;56.072;9.698;2022-09-30T10:12:17;99951.44;;;26.56;37.78
32642;BME280;19323;56.072;9.698;2022-09-30T10:15:00;99941.88;;;26.54;37.92
32642;BME280;19323;56.072;9.698;2022-09-30T10:17:29;99942.19;;;26.44;37.62
32642;BME280;19323;56.072;9.698;2022-09-30T10:22:43;99935.78;;;26.45;37.88
32642;BME280;19323;56.072;9.698;2022-09-30T10:27:47;99937.19;;;26.56;37.81
32642;BME280;19323;56.072;9.698;2022-09-30T10:30:29;99926.47;;;26.56;37.70
32642;BME280;19323;56.072;9.698;2022-09-30T10:32:57;99940.78;;;26.48;37.57
32642;BME280;19323;56.072;9.698;2022-09-30T10:35:23;99936.25;;;26.48;37.88
32642;BME280;19323;56.072;9.698;2022-09-30T10:37:51;99938.72;;;26.50;37.76
32642;BME280;19323;56.072;9.698;2022-09-30T10:40:22;99942.91;;;26.52;37.47
32642;BME280;19323;56.072;9.698;2022-09-30T10:42:53;99938.09;;;26.48;37.61
32642;BME280;19323;56.072;9.698;2022-09-30T10:45:32;99937.69;;;26.59;37.48
32642;BME280;19323;56.072;9.698;2022-09-30T10:48:05;99940.88;;;26.55;37.49
32642;BME280;19323;56.072;9.698;2022-09-30T10:50:38;99936.25;;;26.48;37.88
32642;BME280;19323;56.072;9.698;2022-09-30T10:53:14;99928.13;;;26.57;37.78
32642;BME280;19323;56.072;9.698;2022-09-30T10:55:44;99930.50;;;26.51;37.47
32642;BME280;19323;56.072;9.698;2022-09-30T11:00:51;99932.19;;;26.52;37.77
32642;BME280;19323;56.072;9.698;2022-09-30T11:03:24;99929.97;;;26.56;37.91
32642;BME280;19323;56.072;9.698;2022-09-30T11:05:54;99933.00;;;26.53;37.65
32642;BME280;19323;56.072;9.698;2022-09-30T11:08:28;99935.16;;;26.58;37.41
32642;BME280;19323;56.072;9.698;2022-09-30T11:11:07;99930.50;;;26.51;37.79
32642;BME280;19323;56.072;9.698;2022-09-30T11:18:42;99941.00;;;26.61;37.43
32642;BME280;19323;56.072;9.698;2022-09-30T11:21:41;99935.25;;;26.64;37.34
32642;BME280;19323;56.072;9.698;2022-09-30T11:35:46;99929.88;;;26.64;37.72
32642;BME280;19323;56.072;9.698;2022-09-30T11:42:08;99916.63;;;26.63;37.80
32642;BME280;19323;56.072;9.698;2022-09-30T11:44:38;99925.78;;;26.54;37.46
32642;BME280;19323;56.072;9.698;2022-09-30T11:52:55;99929.88;;;26.64;37.85
32642;BME280;19323;56.072;9.698;2022-09-30T11:55:31;99926.94;;;26.59;37.58
32642;BME280;19323;56.072;9.698;2022-09-30T11:58:03;99917.00;;;26.60;37.55
32642;BME280;19323;56.072;9.698;2022-09-30T12:00:57;99922.22;;;26.61;37.93
32642;BME280;19323;56.072;9.698;2022-09-30T12:03:27;99914.50;;;26.58;37.53
32642;BME280;19323;56.072;9.698;2022-09-30T12:06:02;99921.00;;;26.64;37.88
32642;BME280;19323;56.072;9.698;2022-09-30T12:08:36;99926.38;;;26.64;37.83
32642;BME280;19323;56.072;9.698;2022-09-30T12:11:09;99920.69;;;26.59;37.54
32642;BME280;19323;56.072;9.698;2022-09-30T12:13:47;99932.56;;;26.64;37.45
32642;BME280;19323;56.072;9.698;2022-09-30T12:16:20;99928.59;;;26.60;37.45
32642;BME280;19323;56.072;9.698;2022-09-30T12:19:10;99933.03;;;26.68;37.34
32642;BME280;19323;56.072;9.698;2022-09-30T12:21:44;99926.38;;;26.64;37.77
32642;BME280;19323;56.072;9.698;2022-09-30T12:24:23;99926.16;;;26.65;37.37
32642;BME280;19323;56.072;9.698;2022-09-30T12:26:51;99925.25;;;26.58;37.63
32642;BME280;19323;56.072;9.698;2022-09-30T12:29:46;99919.97;;;26.65;37.54
32642;BME280;19323;56.072;9.698;2022-09-30T12:38:11;99931.19;;;26.68;37.42
32642;BME280;19323;56.072;9.698;2022-09-30T12:43:49;99923.78;;;26.70;37.57
32642;BME280;19323;56.072;9.698;2022-09-30T12:46:27;99924.34;;;26.66;37.49
32642;BME280;19323;56.072;9.698;2022-09-30T12:49:09;99925.16;;;26.66;37.73
32642;BME280;19323;56.072;9.698;2022-09-30T12:51:43;99928.66;;;26.67;37.89
32642;BME280;19323;56.072;9.698;2022-09-30T12:54:16;99925.97;;;26.67;37.65
32642;BME280;19323;56.072;9.698;2022-09-30T12:56:47;99924.50;;;26.64;38.01
32642;BME280;19323;56.072;9.698;2022-09-30T12:59:22;99926.63;;;26.69;37.72
32642;BME280;19323;56.072;9.698;2022-09-30T13:01:50;99926.72;;;26.61;38.08
32642;BME280;19323;56.072;9.698;2022-09-30T13:09:37;99922.56;;;26.73;37.66
32642;BME280;19323;56.072;9.698;2022-09-30T13:12:26;99928.31;;;26.70;37.57
32642;BME280;19323;56.072;9.698;2022-09-30T13:15:22;99929.59;;;26.74;37.56
32642;BME280;19323;56.072;9.698;2022-09-30T13:23:37;99927.28;;;26.71;37.49
32642;BME280;19323;56.072;9.698;2022-09-30T13:26:37;99924.22;;;26.74;37.63
32642;BME280;19323;56.072;9.698;2022-09-30T13:34:23;99912.63;;;26.74;37.37
32642;BME280;19323;56.072;9.698;2022-09-30T13:39:30;99905.41;;;26.74;37.97
32642;BME280;19323;56.072;9.698;2022-09-30T13:45:05;99906.53;;;26.80;37.35
32642;BME280;19323;56.072;9.698;2022-09-30T13:47:38;99905.63;;;26.73;37.56
32642;BME280;19323;56.072;9.698;2022-09-30T13:50:17;99909.38;;;26.78;37.71
32642;BME280;19323;56.072;9.698;2022-09-30T13:52:55;99905.06;;;26.77;37.83
32642;BME280;19323;56.072;9.698;2022-09-30T13:55:43;99906.78;;;26.85;37.74
32642;BME280;19323;56.072;9.698;2022-09-30T13:58:39;99909.47;;;26.85;37.47
32642;BME280;19323;56.072;9.698;2022-09-30T14:09:29;99902.72;;;26.89;37.71
32642;BME280;19323;56.072;9.698;2022-09-30T14:22:39;99900.22;;;26.87;37.81
32642;BME280;19323;56.072;9.698;2022-09-30T14:25:15;99906.31;;;26.96;37.20
32642;BME280;19323;56.072;9.698;2022-09-30T14:28:01;99903.72;;;27.03;37.41
32642;BME280;19323;56.072;9.698;2022-09-30T14:30:35;99896.00;;;27.00;37.05
32642;BME280;19323;56.072;9.698;2022-09-30T14:33:17;99902.28;;;27.07;37.63
32642;BME280;19323;56.072;9.698;2022-09-30T14:35:51;99907.94;;;27.12;36.96
32642;BME280;19323;56.072;9.698;2022-09-30T14:38:22;99897.91;;;27.21;37.34
32642;BME280;19323;56.072;9.698;2022-09-30T14:40:55;99894.88;;;27.24;36.77
32642;BME280;19323;56.072;9.698;2022-09-30T14:43:27;99879.44;;;27.32;37.04
32642;BME280;19323;56.072;9.698;2022-09-30T14:46:02;99886.75;;;27.39;36.61
32642;BME280;19323;56.072;9.698;2022-09-30T14:48:33;99882.00;;;27.41;36.95
32642;BME280;19323;56.072;9.698;2022-09-30T14:51:06;99888.28;;;27.48;36.37
32642;BME280;19323;56.072;9.698;2022-09-30T14:53:36;99870.38;;;27.33;36.94
32642;BME280;19323;56.072;9.698;2022-09-30T14:56:27;99884.81;;;27.54;36.26
32642;BME280;19323;56.072;9.698;2022-09-30T14:58:57;99882.47;;;27.44;36.82
32642;BME280;19323;56.072;9.698;2022-09-30T15:01:34;99880.47;;;27.53;36.32
32642;BME280;19323;56.072;9.698;2022-09-30T15:04:08;99883.53;;;27.50;36.48
32642;BME280;19323;56.072;9.698;2022-09-30T15:06:36;99873.75;;;27.42;36.94
32642;BME280;19323;56.072;9.698;2022-09-30T15:09:06;99868.38;;;27.42;36.53
32642;BME280;19323;56.072;9.698;2022-09-30T15:11:34;99868.75;;;27.39;36.62
32642;BME280;19323;56.072;9.698;2022-09-30T15:14:12;99877.09;;;27.44;36.96
32642;BME280;19323;56.072;9.698;2022-09-30T15:16:52;99877.53;;;27.48;36.92
32642;BME280;19323;56.072;9.698;2022-09-30T15:19:33;99872.91;;;27.42;36.70
32642;BME280;19323;56.072;9.698;2022-09-30T15:22:05;99873.38;;;27.45;36.73
32642;BME280;19323;56.072;9.698;2022-09-30T15:24:35;99863.59;;;27.38;36.96
32642;BME280;19323;56.072;9.698;2022-09-30T15:27:02;99869.78;;;27.38;36.91
32642;BME280;19323;56.072;9.698;2022-09-30T15:29:29;99851.53;;;27.33;37.05
32642;BME280;19323;56.072;9.698;2022-09-30T15:32:20;99868.44;;;27.49;36.60
32642;BME280;19323;56.072;9.698;2022-09-30T15:34:47;99863.78;;;27.36;36.74
32642;BME280;19323;56.072;9.698;2022-09-30T15:37:25;99867.97;;;27.45;36.85
32642;BME280;19323;56.072;9.698;2022-09-30T15:39:55;99851.53;;;27.33;36.95
32642;BME280;19323;56.072;9.698;2022-09-30T15:42:43;99869.56;;;27.40;36.96
32642;BME280;19323;56.072;9.698;2022-09-30T15:50:47;99864.66;;;27.43;36.95
32642;BME280;19323;56.072;9.698;2022-09-30T15:53:19;99863.19;;;27.41;36.87
32642;BME280;19323;56.072;9.698;2022-09-30T15:55:55;99870.22;;;27.42;37.11
32642;BME280;19323;56.072;9.698;2022-09-30T16:03:35;99864.78;;;27.35;37.01
32642;BME280;19323;56.072;9.698;2022-09-30T16:06:06;99872.91;;;27.42;36.77
32642;BME280;19323;56.072;9.698;2022-09-30T16:08:43;99876.25;;;27.44;36.59
32642;BME280;19323;56.072;9.698;2022-09-30T16:11:19;99873.38;;;27.45;36.81
32642;BME280;19323;56.072;9.698;2022-09-30T16:13:47;99868.31;;;27.36;37.10
32642;BME280;19323;56.072;9.698;2022-09-30T16:16:20;99869.03;;;27.44;37.21
32642;BME280;19323;56.072;9.698;2022-09-30T16:18:48;99878.03;;;27.37;37.25
32642;BME280;19323;56.072;9.698;2022-09-30T16:21:28;99878.56;;;27.47;37.28